createdAt,value
2018-09-17T00:00:41.173Z,8.28
2018-09-17T00:01:41.146Z,8.37
2018-09-17T00:02:41.120Z,8.43
2018-09-17T00:03:41.095Z,8.34
2018-09-17T00:04:41.071Z,8.44
2018-09-17T00:05:41.042Z,8.38
2018-09-17T00:06:41.016Z,8.40
2018-09-17T00:07:40.990Z,8.41
2018-09-17T00:08:40.968Z,8.37
2018-09-17T00:09:40.936Z,8.28
2018-09-17T00:10:40.910Z,8.16
2018-09-17T00:11:40.887Z,8.18
2018-09-17T00:12:40.859Z,8.10
2018-09-17T00:13:40.832Z,8.10
2018-09-17T00:14:40.806Z,8.00
2018-09-17T00:15:40.779Z,7.98
2018-09-17T00:16:40.755Z,7.90
2018-09-17T00:17:40.728Z,7.86
2018-09-17T00:18:40.703Z,7.86
2018-09-17T00:19:40.675Z,7.85
2018-09-17T00:20:40.650Z,7.77
2018-09-17T00:21:40.623Z,7.82
2018-09-17T00:22:40.595Z,7.95
2018-09-17T00:23:40.572Z,7.87
2018-09-17T00:24:40.544Z,7.87
2018-09-17T00:25:40.516Z,7.77
2018-09-17T00:26:40.492Z,7.80
2018-09-17T00:27:40.464Z,7.79
2018-09-17T00:28:40.438Z,7.77
2018-09-17T00:29:40.411Z,7.61
2018-09-17T00:30:40.386Z,7.75
2018-09-17T00:31:40.360Z,7.75
2018-09-17T00:32:40.333Z,7.72
2018-09-17T00:33:40.307Z,7.75
2018-09-17T00:34:40.279Z,7.74
2018-09-17T00:35:40.252Z,7.69
2018-09-17T00:36:40.226Z,7.69
2018-09-17T00:37:40.200Z,7.60
2018-09-17T00:38:40.173Z,7.61
2018-09-17T00:39:40.146Z,7.58
2018-09-17T00:40:40.121Z,7.58
2018-09-17T00:41:40.094Z,7.50
2018-09-17T00:42:40.068Z,7.49
2018-09-17T00:43:40.040Z,7.49
2018-09-17T00:44:40.016Z,7.34
2018-09-17T00:45:39.992Z,7.39
2018-09-17T00:46:39.961Z,7.30
2018-09-17T00:47:39.935Z,7.35
2018-09-17T00:48:39.908Z,7.31
2018-09-17T00:49:39.884Z,7.25
2018-09-17T00:50:39.857Z,7.27
2018-09-17T00:51:39.829Z,7.35
2018-09-17T00:52:39.803Z,7.37
2018-09-17T00:53:39.774Z,7.43
2018-09-17T00:54:39.749Z,7.46
2018-09-17T00:55:39.721Z,7.46
2018-09-17T00:56:39.695Z,7.67
2018-09-17T00:57:39.684Z,7.55
2018-09-17T00:58:39.645Z,7.48
2018-09-17T00:59:39.615Z,7.52
2018-09-17T01:00:39.589Z,7.49
2018-09-17T01:01:39.561Z,7.32
2018-09-17T01:02:39.534Z,7.34
2018-09-17T01:03:39.581Z,7.35
2018-09-17T01:04:39.482Z,7.37
2018-09-17T01:05:39.455Z,7.46
2018-09-17T01:06:39.428Z,7.32
2018-09-17T01:07:39.401Z,7.40
2018-09-17T01:08:39.375Z,7.45
2018-09-17T01:09:39.347Z,7.48
2018-09-17T01:10:39.320Z,7.50
2018-09-17T01:11:39.294Z,7.58
2018-09-17T01:12:39.269Z,7.57
2018-09-17T01:13:39.240Z,7.52
2018-09-17T01:14:39.215Z,7.46
2018-09-17T01:15:39.187Z,7.46
2018-09-17T01:16:39.160Z,7.42
2018-09-17T01:17:39.132Z,7.35
2018-09-17T01:18:39.106Z,7.35
2018-09-17T01:19:39.079Z,7.37
2018-09-17T01:20:39.053Z,7.24
2018-09-17T01:21:39.024Z,7.21
2018-09-17T01:22:39.000Z,7.24
2018-09-17T01:23:38.971Z,7.23
2018-09-17T01:24:38.945Z,7.20
2018-09-17T01:25:38.918Z,7.13
2018-09-17T01:26:38.892Z,7.20
2018-09-17T01:27:38.865Z,7.10
2018-09-17T01:28:38.838Z,7.07
2018-09-17T01:29:38.809Z,7.09
2018-09-17T01:30:38.876Z,7.06
2018-09-17T01:31:38.780Z,6.94
2018-09-17T01:32:38.731Z,6.98
2018-09-17T01:33:38.703Z,6.92
2018-09-17T01:34:38.676Z,7.10
2018-09-17T01:35:38.652Z,7.07
2018-09-17T01:36:38.626Z,7.13
2018-09-17T01:37:38.595Z,7.15
2018-09-17T01:38:38.567Z,7.09
2018-09-17T01:39:38.540Z,6.92
2018-09-17T01:40:38.515Z,6.92
2018-09-17T01:41:38.487Z,6.98
2018-09-17T01:42:38.460Z,6.97
2018-09-17T01:43:38.432Z,6.89
2018-09-17T01:44:38.408Z,6.97
2018-09-17T01:45:38.379Z,6.94
2018-09-17T01:46:38.351Z,6.94
2018-09-17T01:47:38.324Z,6.89
2018-09-17T01:48:38.297Z,6.79
2018-09-17T01:49:38.272Z,6.79
2018-09-17T01:50:38.244Z,6.84
2018-09-17T01:51:38.217Z,6.74
2018-09-17T01:52:38.189Z,6.79
2018-09-17T01:53:38.162Z,6.79
2018-09-17T01:54:38.135Z,6.76
2018-09-17T01:55:38.107Z,6.70
2018-09-17T01:56:38.081Z,6.73
2018-09-17T01:57:38.054Z,6.71
2018-09-17T01:58:38.026Z,6.70
2018-09-17T01:59:37.999Z,6.80
2018-09-17T02:00:37.971Z,6.73
2018-09-17T02:01:37.944Z,6.71
2018-09-17T02:02:37.916Z,6.76
2018-09-17T02:03:37.891Z,6.84
2018-09-17T02:04:37.863Z,6.73
2018-09-17T02:05:37.834Z,6.79
2018-09-17T02:06:37.808Z,6.76
2018-09-17T02:07:37.782Z,6.88
2018-09-17T02:08:37.847Z,6.71
2018-09-17T02:09:37.727Z,6.76
2018-09-17T02:10:37.699Z,6.74
2018-09-17T02:11:37.672Z,6.73
2018-09-17T02:12:37.646Z,6.81
2018-09-17T02:13:37.617Z,6.89
2018-09-17T02:14:37.590Z,6.91
2018-09-17T02:15:37.564Z,6.87
2018-09-17T02:16:37.537Z,6.91
2018-09-17T02:17:37.508Z,6.79
2018-09-17T02:18:37.482Z,6.76
2018-09-17T02:19:37.455Z,6.74
2018-09-17T02:20:37.427Z,6.79
2018-09-17T02:21:37.400Z,6.74
2018-09-17T02:22:37.372Z,6.71
2018-09-17T02:23:37.345Z,6.62
2018-09-17T02:24:37.319Z,6.56
2018-09-17T02:25:37.290Z,6.59
2018-09-17T02:26:37.263Z,6.54
2018-09-17T02:27:37.234Z,6.67
2018-09-17T02:28:37.209Z,6.49
2018-09-17T02:29:37.179Z,6.55
2018-09-17T02:30:37.152Z,6.51
2018-09-17T02:31:37.125Z,6.41
2018-09-17T02:32:37.098Z,6.44
2018-09-17T02:33:37.069Z,6.43
2018-09-17T02:34:37.043Z,6.49
2018-09-17T02:35:37.015Z,6.36
2018-09-17T02:36:36.988Z,6.51
2018-09-17T02:37:36.960Z,6.40
2018-09-17T02:38:36.933Z,6.28
2018-09-17T02:39:36.905Z,6.27
2018-09-17T02:40:36.879Z,6.28
2018-09-17T02:41:36.853Z,6.33
2018-09-17T02:42:36.822Z,6.27
2018-09-17T02:43:36.796Z,6.36
2018-09-17T02:44:36.768Z,6.21
2018-09-17T02:45:36.741Z,6.22
2018-09-17T02:46:36.711Z,6.19
2018-09-17T02:47:36.686Z,6.22
2018-09-17T02:48:36.658Z,6.19
2018-09-17T02:49:36.630Z,6.22
2018-09-17T02:50:36.602Z,6.19
2018-09-17T02:51:36.576Z,6.34
2018-09-17T02:52:36.548Z,6.41
2018-09-17T02:53:36.537Z,6.44
2018-09-17T02:54:36.493Z,6.28
2018-09-17T02:55:36.468Z,6.33
2018-09-17T02:56:36.437Z,6.17
2018-09-17T02:57:36.414Z,6.15
2018-09-17T02:58:36.388Z,6.08
2018-09-17T02:59:36.354Z,6.15
2018-09-17T03:00:36.326Z,6.14
2018-09-17T03:01:36.298Z,6.15
2018-09-17T03:02:36.276Z,6.15
2018-09-17T03:03:36.250Z,6.01
2018-09-17T03:04:36.216Z,6.03
2018-09-17T03:05:36.188Z,6.01
2018-09-17T03:06:36.159Z,5.94
2018-09-17T03:07:36.133Z,5.93
2018-09-17T03:08:36.105Z,5.96
2018-09-17T03:09:36.076Z,6.01
2018-09-17T03:10:36.050Z,6.01
2018-09-17T03:11:36.022Z,6.04
2018-09-17T03:12:35.995Z,6.14
2018-09-17T03:13:35.965Z,6.06
2018-09-17T03:14:35.941Z,6.01
2018-09-17T03:15:35.912Z,6.04
2018-09-17T03:16:35.884Z,6.08
2018-09-17T03:17:35.856Z,6.12
2018-09-17T03:18:35.832Z,6.01
2018-09-17T03:19:35.800Z,6.00
2018-09-17T03:20:35.772Z,5.96
2018-09-17T03:21:35.744Z,5.97
2018-09-17T03:22:35.717Z,6.00
2018-09-17T03:23:35.688Z,5.97
2018-09-17T03:24:35.720Z,5.91
2018-09-17T03:25:35.641Z,5.93
2018-09-17T03:26:35.605Z,5.89
2018-09-17T03:27:35.579Z,5.86
2018-09-17T03:28:35.550Z,5.91
2018-09-17T03:29:35.523Z,5.96
2018-09-17T03:30:35.495Z,5.96
2018-09-17T03:31:35.468Z,5.90
2018-09-17T03:32:35.438Z,5.83
2018-09-17T03:33:35.410Z,5.96
2018-09-17T03:34:35.386Z,5.91
2018-09-17T03:35:35.354Z,5.86
2018-09-17T03:36:35.326Z,5.96
2018-09-17T03:37:35.308Z,5.97
2018-09-17T03:38:35.287Z,5.83
2018-09-17T03:39:35.247Z,5.97
2018-09-17T03:40:35.216Z,5.90
2018-09-17T03:41:35.189Z,5.94
2018-09-17T03:42:35.161Z,5.86
2018-09-17T03:43:35.132Z,5.86
2018-09-17T03:44:35.107Z,5.83
2018-09-17T03:45:35.075Z,5.90
2018-09-17T03:46:35.126Z,6.00
2018-09-17T03:47:35.022Z,6.12
2018-09-17T03:48:34.995Z,6.01
2018-09-17T03:49:34.963Z,6.12
2018-09-17T03:50:34.937Z,6.09
2018-09-17T03:51:34.909Z,6.04
2018-09-17T03:52:34.882Z,5.97
2018-09-17T03:53:34.857Z,6.06
2018-09-17T03:54:34.827Z,6.06
2018-09-17T03:55:34.798Z,5.99
2018-09-17T03:56:34.788Z,6.06
2018-09-17T03:57:34.741Z,6.12
2018-09-17T03:58:34.713Z,6.11
2018-09-17T03:59:34.685Z,6.15
2018-09-17T04:00:34.657Z,6.19
2018-09-17T04:01:34.630Z,6.12
2018-09-17T04:02:34.602Z,6.11
2018-09-17T04:03:34.573Z,6.09
2018-09-17T04:04:34.545Z,6.03
2018-09-17T04:05:34.516Z,5.97
2018-09-17T04:06:34.489Z,5.85
2018-09-17T04:07:34.463Z,5.94
2018-09-17T04:08:34.434Z,5.79
2018-09-17T04:09:34.407Z,5.72
2018-09-17T04:10:34.377Z,5.72
2018-09-17T04:11:34.350Z,5.71
2018-09-17T04:12:34.321Z,5.71
2018-09-17T04:13:34.292Z,5.72
2018-09-17T04:14:34.268Z,5.82
2018-09-17T04:15:34.237Z,5.81
2018-09-17T04:16:34.210Z,5.74
2018-09-17T04:17:34.182Z,5.85
2018-09-17T04:18:34.154Z,5.76
2018-09-17T04:19:34.128Z,5.86
2018-09-17T04:20:34.099Z,5.94
2018-09-17T04:21:34.070Z,5.81
2018-09-17T04:22:34.045Z,5.71
2018-09-17T04:23:34.014Z,5.78
2018-09-17T04:24:33.985Z,5.71
2018-09-17T04:25:33.958Z,5.68
2018-09-17T04:26:33.929Z,5.74
2018-09-17T04:27:33.903Z,5.74
2018-09-17T04:28:33.874Z,5.75
2018-09-17T04:29:33.845Z,5.75
2018-09-17T04:30:33.865Z,5.63
2018-09-17T04:31:33.816Z,5.61
2018-09-17T04:32:33.761Z,5.74
2018-09-17T04:33:33.732Z,5.71
2018-09-17T04:34:33.703Z,5.71
2018-09-17T04:35:33.677Z,5.74
2018-09-17T04:36:33.647Z,5.78
2018-09-17T04:37:33.620Z,5.74
2018-09-17T04:38:33.592Z,5.71
2018-09-17T04:39:33.563Z,5.82
2018-09-17T04:40:33.535Z,5.78
2018-09-17T04:41:33.506Z,5.83
2018-09-17T04:42:33.478Z,5.89
2018-09-17T04:43:33.450Z,5.90
2018-09-17T04:44:33.423Z,6.00
2018-09-17T04:45:33.394Z,5.86
2018-09-17T04:46:33.366Z,5.89
2018-09-17T04:47:33.338Z,5.91
2018-09-17T04:48:33.311Z,5.91
2018-09-17T04:49:33.281Z,5.99
2018-09-17T04:50:33.254Z,5.85
2018-09-17T04:51:33.227Z,5.99
2018-09-17T04:52:33.197Z,5.96
2018-09-17T04:53:33.171Z,5.96
2018-09-17T04:54:33.141Z,5.90
2018-09-17T04:55:33.112Z,5.75
2018-09-17T04:56:33.090Z,5.79
2018-09-17T04:57:33.055Z,5.86
2018-09-17T04:58:33.027Z,5.85
2018-09-17T04:59:33.001Z,5.89
2018-09-17T05:00:32.971Z,5.93
2018-09-17T05:01:32.942Z,5.91
2018-09-17T05:02:32.915Z,5.90
2018-09-17T05:03:32.886Z,5.83
2018-09-17T05:04:32.859Z,5.96
2018-09-17T05:05:32.832Z,5.96
2018-09-17T05:06:32.803Z,5.97
2018-09-17T05:07:32.773Z,6.03
2018-09-17T05:08:32.747Z,5.99
2018-09-17T05:09:32.716Z,6.03
2018-09-17T05:10:32.689Z,6.01
2018-09-17T05:11:32.661Z,6.03
2018-09-17T05:12:32.633Z,6.06
2018-09-17T05:13:32.619Z,6.06
2018-09-17T05:14:32.576Z,6.17
2018-09-17T05:15:32.550Z,6.09
2018-09-17T05:16:32.521Z,6.25
2018-09-17T05:17:32.499Z,6.14
2018-09-17T05:18:32.465Z,6.19
2018-09-17T05:19:32.437Z,6.22
2018-09-17T05:20:32.453Z,6.25
2018-09-17T05:21:32.380Z,6.33
2018-09-17T05:22:32.353Z,6.44
2018-09-17T05:23:32.326Z,6.41
2018-09-17T05:24:32.296Z,6.62
2018-09-17T05:25:32.268Z,6.66
2018-09-17T05:26:32.245Z,6.71
2018-09-17T05:27:32.213Z,6.69
2018-09-17T05:28:32.185Z,6.81
2018-09-17T05:29:32.158Z,6.88
2018-09-17T05:30:32.133Z,6.84
2018-09-17T05:31:32.101Z,6.92
2018-09-17T05:32:32.075Z,7.07
2018-09-17T05:33:32.047Z,7.09
2018-09-17T05:34:32.020Z,7.37
2018-09-17T05:35:31.992Z,7.61
2018-09-17T05:36:31.967Z,8.01
2018-09-17T05:37:31.935Z,8.55
2018-09-17T05:38:31.910Z,8.99
2018-09-17T05:39:31.882Z,9.29
2018-09-17T05:40:31.856Z,9.81
2018-09-17T05:41:31.829Z,10.63
2018-09-17T05:42:31.803Z,11.14
2018-09-17T05:43:31.778Z,11.58
2018-09-17T05:44:31.834Z,12.14
2018-09-17T05:45:31.721Z,12.31
2018-09-17T05:46:31.695Z,12.04
2018-09-17T05:47:31.669Z,11.52
2018-09-17T05:48:31.646Z,11.11
2018-09-17T05:49:31.619Z,10.88
2018-09-17T05:50:31.595Z,10.60
2018-09-17T05:51:31.569Z,10.47
2018-09-17T05:52:31.545Z,10.51
2018-09-17T05:53:31.518Z,10.55
2018-09-17T05:54:31.494Z,10.61
2018-09-17T05:55:31.473Z,10.74
2018-09-17T05:56:31.444Z,10.81
2018-09-17T05:57:31.418Z,10.61
2018-09-17T05:58:31.392Z,10.64
2018-09-17T05:59:31.383Z,10.74
2018-09-17T06:00:31.345Z,11.11
2018-09-17T06:01:31.319Z,11.54
2018-09-17T06:02:31.294Z,12.21
2018-09-17T06:03:31.270Z,12.89
2018-09-17T06:04:31.246Z,13.14
2018-09-17T06:05:31.248Z,13.67
2018-09-17T06:06:31.196Z,14.35
2018-09-17T06:07:31.173Z,15.14
2018-09-17T06:08:31.150Z,15.90
2018-09-17T06:09:31.158Z,16.38
2018-09-17T06:10:31.102Z,16.70
2018-09-17T06:11:31.080Z,16.67
2018-09-17T06:12:31.057Z,16.35
2018-09-17T06:13:31.032Z,16.08
2018-09-17T06:14:31.016Z,15.83
2018-09-17T06:15:30.989Z,15.65
2018-09-17T06:16:30.966Z,15.36
2018-09-17T06:17:31.099Z,15.39
2018-09-17T06:18:30.933Z,15.17
2018-09-17T06:19:30.900Z,15.19
2018-09-17T06:20:30.877Z,15.13
2018-09-17T06:21:30.854Z,15.34
2018-09-17T06:22:30.833Z,15.39
2018-09-17T06:23:30.813Z,15.51
2018-09-17T06:24:30.791Z,15.62
2018-09-17T06:25:30.767Z,15.56
2018-09-17T06:26:30.751Z,15.46
2018-09-17T06:27:30.723Z,15.25
2018-09-17T06:28:30.713Z,15.16
2018-09-17T06:29:30.680Z,15.01
2018-09-17T06:30:30.657Z,14.91
2018-09-17T06:31:30.637Z,14.84
2018-09-17T06:32:30.616Z,14.88
2018-09-17T06:33:30.592Z,14.84
2018-09-17T06:34:30.571Z,14.73
2018-09-17T06:35:30.549Z,14.72
2018-09-17T06:36:30.527Z,14.62
2018-09-17T06:37:30.594Z,14.51
2018-09-17T06:38:30.482Z,14.46
2018-09-17T06:39:30.461Z,14.22
2018-09-17T06:40:30.439Z,14.15
2018-09-17T06:41:30.430Z,14.14
2018-09-17T06:42:30.394Z,14.09
2018-09-17T06:43:30.376Z,14.04
2018-09-17T06:44:30.354Z,14.00
2018-09-17T06:45:30.327Z,14.09
2018-09-17T06:46:30.305Z,14.06
2018-09-17T06:47:30.289Z,14.10
2018-09-17T06:48:30.262Z,14.24
2018-09-17T06:49:30.237Z,14.43
2018-09-17T06:50:30.216Z,14.62
2018-09-17T06:51:30.204Z,14.89
2018-09-17T06:52:30.171Z,15.02
2018-09-17T06:53:30.150Z,15.07
2018-09-17T06:54:30.129Z,15.17
2018-09-17T06:55:30.104Z,15.38
2018-09-17T06:56:30.085Z,15.51
2018-09-17T06:57:30.060Z,15.71
2018-09-17T06:58:30.039Z,15.75
2018-09-17T06:59:30.016Z,16.05
2018-09-17T07:00:29.996Z,16.41
2018-09-17T07:01:29.972Z,16.35
2018-09-17T07:02:29.951Z,16.48
2018-09-17T07:03:29.930Z,16.67
2018-09-17T07:04:29.908Z,16.75
2018-09-17T07:05:29.885Z,17.00
2018-09-17T07:06:29.863Z,17.16
2018-09-17T07:07:29.843Z,17.63
2018-09-17T07:08:29.822Z,17.92
2018-09-17T07:09:29.803Z,18.30
2018-09-17T07:10:29.780Z,18.58
2018-09-17T07:11:29.760Z,18.90
2018-09-17T07:12:29.741Z,19.02
2018-09-17T07:13:29.716Z,19.32
2018-09-17T07:14:29.697Z,19.56
2018-09-17T07:15:29.679Z,19.65
2018-09-17T07:16:29.660Z,19.78
2018-09-17T07:17:29.638Z,19.78
2018-09-17T07:18:29.616Z,19.56
2018-09-17T07:19:29.596Z,19.18
2018-09-17T07:20:29.576Z,18.95
2018-09-17T07:21:29.556Z,19.04
2018-09-17T07:22:29.537Z,19.11
2018-09-17T07:23:29.517Z,19.11
2018-09-17T07:24:29.498Z,18.94
2018-09-17T07:25:29.476Z,19.10
2018-09-17T07:26:29.457Z,19.00
2018-09-17T07:27:29.439Z,19.16
2018-09-17T07:28:29.417Z,19.40
2018-09-17T07:29:29.397Z,19.65
2018-09-17T07:30:29.378Z,19.94
2018-09-17T07:31:29.359Z,19.78
2018-09-17T07:32:29.340Z,19.87
2018-09-17T07:33:29.321Z,19.78
2018-09-17T07:34:29.300Z,19.59
2018-09-17T07:35:29.281Z,19.62
2018-09-17T07:36:29.344Z,19.69
2018-09-17T07:37:29.243Z,19.63
2018-09-17T07:38:29.223Z,19.54
2018-09-17T07:39:29.205Z,19.47
2018-09-17T07:40:29.185Z,19.46
2018-09-17T07:41:29.166Z,19.58
2018-09-17T07:42:29.170Z,19.29
2018-09-17T07:43:29.126Z,18.98
2018-09-17T07:44:29.109Z,18.94
2018-09-17T07:45:29.089Z,18.98
2018-09-17T07:46:29.071Z,19.28
2018-09-17T07:47:29.050Z,19.37
2018-09-17T07:48:29.030Z,19.43
2018-09-17T07:49:29.011Z,19.58
2018-09-17T07:50:28.993Z,19.58
2018-09-17T07:51:28.972Z,19.80
2018-09-17T07:52:28.952Z,20.17
2018-09-17T07:53:28.933Z,20.47
2018-09-17T07:54:28.921Z,20.72
2018-09-17T07:55:28.899Z,20.59
2018-09-17T07:56:28.881Z,20.80
2018-09-17T07:57:28.856Z,21.03
2018-09-17T07:58:28.857Z,21.38
2018-09-17T07:59:28.820Z,21.22
2018-09-17T08:00:28.800Z,21.35
2018-09-17T08:01:28.781Z,21.43
2018-09-17T08:02:28.762Z,21.24
2018-09-17T08:03:28.747Z,21.28
2018-09-17T08:04:28.727Z,21.28
2018-09-17T08:05:28.754Z,21.01
2018-09-17T08:06:28.689Z,20.77
2018-09-17T08:07:28.670Z,21.04
2018-09-17T08:08:28.651Z,21.44
2018-09-17T08:09:28.634Z,21.56
2018-09-17T08:10:28.616Z,21.62
2018-09-17T08:11:28.596Z,21.65
2018-09-17T08:12:28.578Z,21.46
2018-09-17T08:13:28.560Z,21.52
2018-09-17T08:14:28.542Z,21.54
2018-09-17T08:15:28.523Z,21.54
2018-09-17T08:16:28.509Z,21.59
2018-09-17T08:17:28.488Z,22.37
2018-09-17T08:18:28.469Z,23.00
2018-09-17T08:19:28.453Z,23.79
2018-09-17T08:20:28.435Z,24.46
2018-09-17T08:21:28.415Z,25.13
2018-09-17T08:22:28.399Z,25.51
2018-09-17T08:23:28.387Z,25.87
2018-09-17T08:24:28.413Z,25.33
2018-09-17T08:25:28.389Z,25.52
2018-09-17T08:26:28.330Z,25.83
2018-09-17T08:27:28.314Z,25.73
2018-09-17T08:28:28.298Z,25.90
2018-09-17T08:29:28.284Z,25.72
2018-09-17T08:30:28.264Z,25.30
2018-09-17T08:31:28.250Z,24.99
2018-09-17T08:32:28.234Z,24.98
2018-09-17T08:33:28.218Z,24.80
2018-09-17T08:34:28.202Z,24.98
2018-09-17T08:35:28.187Z,25.25
2018-09-17T08:36:28.172Z,25.38
2018-09-17T08:37:28.156Z,25.58
2018-09-17T08:38:28.139Z,25.35
2018-09-17T08:39:28.124Z,25.17
2018-09-17T08:40:28.112Z,25.15
2018-09-17T08:41:28.090Z,25.06
2018-09-17T08:42:28.077Z,25.00
2018-09-17T08:43:28.060Z,24.98
2018-09-17T08:44:28.044Z,24.60
2018-09-17T08:45:28.054Z,24.31
2018-09-17T08:46:28.016Z,24.31
2018-09-17T08:47:27.997Z,24.28
2018-09-17T08:48:27.984Z,24.30
2018-09-17T08:49:27.966Z,24.65
2018-09-17T08:50:27.953Z,24.98
2018-09-17T08:51:27.933Z,24.95
2018-09-17T08:52:27.919Z,24.55
2018-09-17T08:53:27.901Z,25.18
2018-09-17T08:54:27.885Z,25.91
2018-09-17T08:55:27.871Z,26.02
2018-09-17T08:56:27.856Z,26.12
2018-09-17T08:57:27.841Z,26.60
2018-09-17T08:58:27.823Z,26.99
2018-09-17T08:59:27.809Z,27.32
2018-09-17T09:00:27.796Z,27.19
2018-09-17T09:01:27.776Z,27.21
2018-09-17T09:02:27.762Z,27.10
2018-09-17T09:03:27.747Z,27.17
2018-09-17T09:04:27.734Z,27.43
2018-09-17T09:05:27.718Z,27.03
2018-09-17T09:06:27.705Z,27.28
2018-09-17T09:07:27.690Z,27.24
2018-09-17T09:08:27.675Z,27.04
2018-09-17T09:09:27.661Z,27.09
2018-09-17T09:10:27.651Z,27.31
2018-09-17T09:11:27.633Z,27.19
2018-09-17T09:12:27.620Z,27.09
2018-09-17T09:13:27.604Z,27.06
2018-09-17T09:14:27.591Z,27.19
2018-09-17T09:15:27.577Z,27.39
2018-09-17T09:16:27.562Z,27.04
2018-09-17T09:17:27.568Z,26.52
2018-09-17T09:18:27.534Z,26.69
2018-09-17T09:19:27.526Z,27.04
2018-09-17T09:20:27.508Z,27.32
2018-09-17T09:21:27.496Z,27.75
2018-09-17T09:22:27.478Z,28.34
2018-09-17T09:23:27.466Z,28.95
2018-09-17T09:24:27.455Z,28.54
2018-09-17T09:25:27.438Z,28.96
2018-09-17T09:26:27.423Z,29.30
2018-09-17T09:27:27.411Z,29.43
2018-09-17T09:28:27.397Z,28.98
2018-09-17T09:29:27.385Z,28.48
2018-09-17T09:30:27.371Z,28.54
2018-09-17T09:31:27.356Z,29.06
2018-09-17T09:32:27.348Z,28.71
2018-09-17T09:33:27.331Z,28.67
2018-09-17T09:34:27.316Z,28.71
2018-09-17T09:35:27.304Z,29.24
2018-09-17T09:36:27.291Z,29.12
2018-09-17T09:37:27.277Z,28.90
2018-09-17T09:38:27.269Z,29.00
2018-09-17T09:39:27.252Z,28.86
2018-09-17T09:40:27.240Z,28.74
2018-09-17T09:41:27.227Z,28.89
2018-09-17T09:42:27.214Z,28.83
2018-09-17T09:43:27.203Z,28.93
2018-09-17T09:44:27.190Z,28.86
2018-09-17T09:45:27.175Z,28.74
2018-09-17T09:46:27.213Z,28.95
2018-09-17T09:47:27.150Z,29.26
2018-09-17T09:48:27.138Z,28.93
2018-09-17T09:49:27.124Z,29.57
2018-09-17T09:50:27.113Z,30.13
2018-09-17T09:51:27.103Z,30.88
2018-09-17T09:52:27.087Z,31.57
2018-09-17T09:53:27.075Z,31.70
2018-09-17T09:54:27.066Z,32.03
2018-09-17T09:55:27.055Z,32.13
2018-09-17T09:56:27.037Z,31.91
2018-09-17T09:57:27.024Z,31.46
2018-09-17T09:58:27.014Z,30.89
2018-09-17T09:59:27.004Z,30.79
2018-09-17T10:00:26.989Z,31.20
2018-09-17T10:01:26.976Z,30.42
2018-09-17T10:02:26.965Z,30.22
2018-09-17T10:03:26.952Z,29.98
2018-09-17T10:04:26.942Z,29.78
2018-09-17T10:05:26.939Z,30.02
2018-09-17T10:06:26.916Z,29.71
2018-09-17T10:07:26.907Z,30.20
2018-09-17T10:08:26.893Z,30.60
2018-09-17T10:09:26.879Z,31.44
2018-09-17T10:10:26.869Z,31.81
2018-09-17T10:11:26.864Z,31.65
2018-09-17T10:12:26.843Z,32.32
2018-09-17T10:13:26.831Z,32.65
2018-09-17T10:14:26.817Z,32.38
2018-09-17T10:15:26.807Z,31.81
2018-09-17T10:16:26.796Z,31.46
2018-09-17T10:17:26.782Z,31.48
2018-09-17T10:18:26.771Z,31.76
2018-09-17T10:19:26.861Z,30.69
2018-09-17T10:20:26.747Z,30.42
2018-09-17T10:21:26.737Z,30.94
2018-09-17T10:22:26.723Z,30.95
2018-09-17T10:23:26.711Z,30.67
2018-09-17T10:24:26.700Z,30.84
2018-09-17T10:25:26.687Z,30.75
2018-09-17T10:26:26.675Z,30.95
2018-09-17T10:27:26.663Z,31.19
2018-09-17T10:28:26.652Z,31.81
2018-09-17T10:29:26.639Z,31.78
2018-09-17T10:30:26.629Z,31.20
2018-09-17T10:31:26.617Z,31.09
2018-09-17T10:32:26.604Z,30.89
2018-09-17T10:33:26.593Z,31.23
2018-09-17T10:34:26.580Z,31.04
2018-09-17T10:35:26.569Z,31.54
2018-09-17T10:36:26.557Z,31.51
2018-09-17T10:37:26.543Z,31.38
2018-09-17T10:38:26.531Z,31.29
2018-09-17T10:39:26.557Z,31.06
2018-09-17T10:40:26.508Z,30.80
2018-09-17T10:41:26.493Z,30.61
2018-09-17T10:42:26.480Z,30.22
2018-09-17T10:43:26.472Z,30.13
2018-09-17T10:44:26.458Z,30.84
2018-09-17T10:45:26.444Z,31.28
2018-09-17T10:46:26.433Z,31.68
2018-09-17T10:47:26.420Z,31.84
2018-09-17T10:48:26.407Z,31.25
2018-09-17T10:49:26.403Z,31.51
2018-09-17T10:50:26.383Z,31.95
2018-09-17T10:51:26.370Z,31.96
2018-09-17T10:52:26.357Z,32.10
2018-09-17T10:53:26.344Z,31.70
2018-09-17T10:54:26.334Z,31.28
2018-09-17T10:55:26.322Z,30.64
2018-09-17T10:56:26.309Z,30.61
2018-09-17T10:57:26.305Z,30.88
2018-09-17T10:58:26.285Z,30.98
2018-09-17T10:59:26.276Z,30.82
2018-09-17T11:00:26.260Z,31.25
2018-09-17T11:01:26.246Z,31.10
2018-09-17T11:02:26.234Z,31.53
2018-09-17T11:03:26.222Z,32.03
2018-09-17T11:04:26.210Z,32.14
2018-09-17T11:05:26.195Z,31.86
2018-09-17T11:06:26.183Z,31.96
2018-09-17T11:07:26.215Z,31.53
2018-09-17T11:08:26.161Z,31.47
2018-09-17T11:09:26.149Z,32.03
2018-09-17T11:10:26.135Z,32.33
2018-09-17T11:11:26.122Z,32.45
2018-09-17T11:12:26.110Z,31.91
2018-09-17T11:13:26.097Z,31.32
2018-09-17T11:14:26.088Z,30.55
2018-09-17T11:15:26.073Z,30.73
2018-09-17T11:16:26.061Z,30.37
2018-09-17T11:17:26.078Z,30.15
2018-09-17T11:18:26.038Z,30.32
2018-09-17T11:19:26.026Z,30.13
2018-09-17T11:20:26.012Z,30.51
2018-09-17T11:21:25.999Z,31.02
2018-09-17T11:22:25.987Z,30.91
2018-09-17T11:23:25.974Z,30.62
2018-09-17T11:24:25.962Z,30.13
2018-09-17T11:25:25.950Z,30.57
2018-09-17T11:26:25.936Z,30.88
2018-09-17T11:27:25.924Z,30.82
2018-09-17T11:28:25.912Z,30.84
2018-09-17T11:29:25.899Z,30.67
2018-09-17T11:30:25.886Z,30.67
2018-09-17T11:31:25.892Z,30.54
2018-09-17T11:32:25.861Z,29.78
2018-09-17T11:33:25.846Z,30.08
2018-09-17T11:34:25.835Z,30.47
2018-09-17T11:35:25.822Z,31.07
2018-09-17T11:36:25.809Z,31.46
2018-09-17T11:37:25.796Z,32.26
2018-09-17T11:38:25.783Z,32.65
2018-09-17T11:39:25.769Z,33.12
2018-09-17T11:40:25.757Z,33.03
2018-09-17T11:41:25.744Z,32.69
2018-09-17T11:42:25.729Z,32.96
2018-09-17T11:43:25.717Z,33.16
2018-09-17T11:44:25.705Z,33.38
2018-09-17T11:45:25.693Z,33.12
2018-09-17T11:46:25.679Z,33.19
2018-09-17T11:47:25.668Z,32.63
2018-09-17T11:48:25.668Z,31.96
2018-09-17T11:49:25.667Z,31.46
2018-09-17T11:50:25.630Z,30.65
2018-09-17T11:51:25.618Z,30.42
2018-09-17T11:52:25.608Z,30.47
2018-09-17T11:53:25.591Z,30.49
2018-09-17T11:54:25.579Z,30.62
2018-09-17T11:55:25.566Z,30.83
2018-09-17T11:56:25.553Z,31.04
2018-09-17T11:57:25.540Z,31.25
2018-09-17T11:58:25.529Z,31.46
2018-09-17T11:59:25.514Z,32.00
2018-09-17T12:00:25.502Z,31.84
2018-09-17T12:01:25.488Z,31.39
2018-09-17T12:02:25.477Z,31.29
2018-09-17T12:03:25.463Z,31.07
2018-09-17T12:04:25.454Z,30.88
2018-09-17T12:05:25.438Z,30.94
2018-09-17T12:06:25.424Z,30.67
2018-09-17T12:07:25.418Z,30.86
2018-09-17T12:08:25.402Z,30.72
2018-09-17T12:09:25.392Z,31.10
2018-09-17T12:10:25.373Z,31.16
2018-09-17T12:11:25.360Z,30.94
2018-09-17T12:12:25.347Z,31.12
2018-09-17T12:13:25.333Z,30.95
2018-09-17T12:14:25.338Z,30.84
2018-09-17T12:15:25.308Z,30.54
2018-09-17T12:16:25.292Z,30.55
2018-09-17T12:17:25.280Z,30.64
2018-09-17T12:18:25.269Z,30.39
2018-09-17T12:19:25.253Z,29.97
2018-09-17T12:20:25.240Z,29.71
2018-09-17T12:21:25.226Z,29.48
2018-09-17T12:22:25.212Z,29.31
2018-09-17T12:23:25.199Z,29.63
2018-09-17T12:24:25.187Z,30.16
2018-09-17T12:25:25.174Z,30.26
2018-09-17T12:26:25.159Z,30.32
2018-09-17T12:27:25.147Z,30.54
2018-09-17T12:28:25.133Z,30.80
2018-09-17T12:29:25.118Z,30.98
2018-09-17T12:30:25.106Z,30.86
2018-09-17T12:31:25.093Z,30.84
2018-09-17T12:32:25.079Z,30.61
2018-09-17T12:33:25.064Z,30.45
2018-09-17T12:34:25.052Z,30.35
2018-09-17T12:35:25.039Z,30.54
2018-09-17T12:36:25.025Z,30.43
2018-09-17T12:37:25.009Z,30.42
2018-09-17T12:38:24.996Z,30.42
2018-09-17T12:39:24.984Z,30.82
2018-09-17T12:40:24.969Z,30.88
2018-09-17T12:41:24.956Z,31.13
2018-09-17T12:42:24.941Z,30.94
2018-09-17T12:43:24.928Z,31.10
2018-09-17T12:44:24.916Z,31.32
2018-09-17T12:45:24.902Z,30.77
2018-09-17T12:46:24.888Z,30.82
2018-09-17T12:47:24.875Z,30.69
2018-09-17T12:48:24.861Z,31.10
2018-09-17T12:49:24.847Z,31.29
2018-09-17T12:50:24.834Z,30.88
2018-09-17T12:51:24.820Z,31.01
2018-09-17T12:52:24.807Z,30.80
2018-09-17T12:53:24.793Z,30.77
2018-09-17T12:54:24.825Z,30.82
2018-09-17T12:55:24.767Z,31.07
2018-09-17T12:56:24.753Z,31.38
2018-09-17T12:57:24.749Z,31.04
2018-09-17T12:58:24.740Z,30.95
2018-09-17T12:59:24.714Z,31.13
2018-09-17T13:00:24.701Z,31.34
2018-09-17T13:01:24.686Z,31.78
2018-09-17T13:02:24.673Z,32.00
2018-09-17T13:03:24.717Z,32.30